createdAt,value
2023-01-25T00:04:38.932Z,54.33
2023-01-25T00:14:41.085Z,55.17
2023-01-25T00:24:44.212Z,56.29
2023-01-25T00:34:47.763Z,57.05
2023-01-25T00:44:49.964Z,54.66
2023-01-25T00:54:52.062Z,53.99
2023-01-25T01:04:56.550Z,54.42
2023-01-25T01:14:59.901Z,54.69
2023-01-25T01:25:02.200Z,54.47
2023-01-25T01:35:04.531Z,53.49
2023-01-25T01:45:44.012Z,53.52
2023-01-25T01:55:49.694Z,54.18
2023-01-25T02:06:01.509Z,56.13
2023-01-25T02:16:05.024Z,55.91
2023-01-25T02:26:07.477Z,57.28
2023-01-25T02:36:10.235Z,56.66
2023-01-25T02:46:28.902Z,56.70
2023-01-25T02:56:32.378Z,57.06
2023-01-25T03:06:35.954Z,56.90
2023-01-25T03:16:38.450Z,57.19
2023-01-25T03:27:01.503Z,54.25
2023-01-25T03:37:31.218Z,55.36
2023-01-25T03:47:34.361Z,55.39
2023-01-25T03:57:37.819Z,58.98
2023-01-25T04:07:42.208Z,56.57
2023-01-25T04:17:45.468Z,56.74
2023-01-25T04:27:55.601Z,58.55
2023-01-25T04:37:59.375Z,57.19
2023-01-25T04:48:10.770Z,58.08
2023-01-25T04:58:19.509Z,60.06
2023-01-25T05:08:22.935Z,58.34
2023-01-25T05:18:42.576Z,60.31
2023-01-25T05:28:52.580Z,59.49
2023-01-25T05:39:01.677Z,58.91
2023-01-25T05:49:06.975Z,58.94
2023-01-25T05:59:11.184Z,59.85
2023-01-25T06:09:13.905Z,61.35
2023-01-25T06:19:17.148Z,58.94
2023-01-25T06:29:38.243Z,60.91
2023-01-25T06:39:40.357Z,59.18
2023-01-25T06:49:42.589Z,59.94
2023-01-25T06:59:44.779Z,58.98
2023-01-25T07:09:46.921Z,61.73
2023-01-25T07:19:49.181Z,60.13
2023-01-25T07:29:51.282Z,60.56
2023-01-25T07:39:53.435Z,61.66
2023-01-25T07:49:55.559Z,62.95
2023-01-25T07:59:57.660Z,61.23
2023-01-25T08:09:59.789Z,60.03
2023-01-25T08:20:02.191Z,61.00
2023-01-25T08:30:04.783Z,62.84
2023-01-25T08:40:07.873Z,60.57
2023-01-25T08:50:11.094Z,59.37
2023-01-25T09:00:14.285Z,61.55
2023-01-25T09:10:16.734Z,60.64
2023-01-25T09:20:18.953Z,61.95
2023-01-25T09:30:23.386Z,60.61
2023-01-25T09:40:34.340Z,63.79
2023-01-25T09:50:51.621Z,61.35
2023-01-25T10:01:05.927Z,62.74
2023-01-25T10:11:29.101Z,61.89
2023-01-25T10:21:35.445Z,63.37
2023-01-25T10:31:44.884Z,60.86
2023-01-25T10:41:51.521Z,63.43
2023-01-25T10:51:53.722Z,62.28
2023-01-25T11:01:57.326Z,64.69
2023-01-25T11:12:03.620Z,67.16
2023-01-25T11:22:19.800Z,63.57
2023-01-25T11:32:22.787Z,61.75
2023-01-25T11:42:32.484Z,65.63
2023-01-25T11:52:52.946Z,61.24
2023-01-25T12:03:08.080Z,60.37
2023-01-25T12:13:30.219Z,62.67
2023-01-25T12:23:40.058Z,61.50
2023-01-25T12:33:46.589Z,61.54
2023-01-25T12:43:52.670Z,60.20
2023-01-25T12:53:55.336Z,62.99
2023-01-25T13:04:03.524Z,62.22
2023-01-25T13:14:36.081Z,59.25
2023-01-25T13:25:03.715Z,62.06
2023-01-25T13:35:28.523Z,57.74
2023-01-25T13:45:32.925Z,60.55
2023-01-25T13:55:40.806Z,60.69
2023-01-25T14:05:50.072Z,57.86
2023-01-25T14:16:10.659Z,59.35
2023-01-25T14:26:26.481Z,61.38
2023-01-25T14:36:31.370Z,60.75
2023-01-25T14:46:35.577Z,59.63
2023-01-25T14:56:46.737Z,59.86
2023-01-25T15:06:54.312Z,62.29
2023-01-25T15:16:56.845Z,62.13
2023-01-25T15:26:59.160Z,59.12
2023-01-25T15:37:03.506Z,59.11
2023-01-25T15:47:05.783Z,59.91
2023-01-25T15:57:23.979Z,57.92
2023-01-25T16:07:28.873Z,59.48
2023-01-25T16:17:31.055Z,59.36
2023-01-25T16:27:36.028Z,60.88
2023-01-25T16:37:38.365Z,58.77
2023-01-25T16:47:40.498Z,57.60
2023-01-25T16:57:43.778Z,58.81
2023-01-25T17:07:53.199Z,60.71
2023-01-25T17:17:55.431Z,58.71
2023-01-25T17:27:57.763Z,59.34
2023-01-25T17:37:59.953Z,58.03
2023-01-25T17:48:02.324Z,59.58
2023-01-25T17:58:05.452Z,60.34
2023-01-25T18:08:07.731Z,58.32
2023-01-25T18:18:10.366Z,59.63
2023-01-25T18:28:13.562Z,59.95
2023-01-25T18:38:17.182Z,60.17
2023-01-25T18:48:30.104Z,62.43
2023-01-25T18:58:33.319Z,60.39
2023-01-25T19:08:39.513Z,61.75
2023-01-25T19:18:48.366Z,58.75
2023-01-25T19:28:51.372Z,60.24
2023-01-25T19:38:53.903Z,58.03
2023-01-25T19:48:56.639Z,59.47
2023-01-25T19:58:59.157Z,58.86
2023-01-25T20:09:02.679Z,58.44
2023-01-25T20:19:04.878Z,58.98
2023-01-25T20:29:07.718Z,57.41
2023-01-25T20:39:12.630Z,59.13
2023-01-25T20:49:17.014Z,60.75
2023-01-25T20:59:19.312Z,60.12
2023-01-25T21:09:26.122Z,60.26
2023-01-25T21:19:28.299Z,61.37
2023-01-25T21:29:30.390Z,59.05
2023-01-25T21:39:32.581Z,59.26
2023-01-25T21:49:55.728Z,62.84
2023-01-25T21:59:59.113Z,61.29
2023-01-25T22:10:02.273Z,62.79
2023-01-25T22:20:04.687Z,59.61
2023-01-25T22:30:10.656Z,58.73
2023-01-25T22:40:13.461Z,58.42
2023-01-25T22:50:16.084Z,61.88
2023-01-25T23:00:18.578Z,58.24
2023-01-25T23:10:20.685Z,61.42
2023-01-25T23:20:23.900Z,59.08
2023-01-25T23:30:27.049Z,57.23
2023-01-25T23:40:29.356Z,57.57
2023-01-25T23:50:32.463Z,57.78
